Time;durP1;ratioP1;P1;durP2;ratioP2;P2;SDS_P1;SDS_P2;PMS_P1;PMS_P2;Temp;Humidity;BMP_temperature;BMP_pressure;BME280_temperature;BME280_humidity;BME280_pressure;Samples;Min_cycle;Max_cycle;Signal;HPM_P1;HPM_P2
2021/12/28 00:00:28;;;;;;;18.00;12.10;;;8.20;99.90;;;;;;4975818;28;20388;-72
2021/12/28 00:02:55;;;;;;;20.87;12.47;;;8.20;99.90;;;;;;4975526;28;20491;-73
2021/12/28 00:05:22;;;;;;;20.40;12.20;;;8.20;99.90;;;;;;4975517;28;20877;-73
2021/12/28 00:07:49;;;;;;;16.92;11.77;;;8.00;99.90;;;;;;4975523;28;20392;-72
2021/12/28 00:10:19;;;;;;;16.67;10.93;;;8.00;99.90;;;;;;4976197;28;20813;-72
2021/12/28 00:12:45;;;;;;;15.65;10.55;;;8.00;99.90;;;;;;4974730;28;20443;-71
2021/12/28 00:18:03;;;;;;;17.80;11.48;;;7.90;99.90;;;;;;4975238;28;20448;-72
2021/12/28 00:20:44;;;;;;;13.73;10.10;;;7.80;99.90;;;;;;4974349;28;20391;-72
2021/12/28 00:23:19;;;;;;;17.58;10.35;;;7.80;99.90;;;;;;4976143;28;20393;-71
2021/12/28 00:25:46;;;;;;;15.87;11.60;;;7.70;99.90;;;;;;4978642;28;20464;-72
2021/12/28 00:28:13;;;;;;;16.63;11.05;;;7.60;99.90;;;;;;4977818;28;20389;-73
2021/12/28 00:30:38;;;;;;;16.52;10.90;;;7.60;99.90;;;;;;4978188;28;20479;-72
2021/12/28 00:33:04;;;;;;;16.43;11.30;;;7.60;99.90;;;;;;4977275;28;20388;-72
2021/12/28 00:35:33;;;;;;;16.60;11.57;;;7.50;99.90;;;;;;4976019;28;20399;-72
2021/12/28 00:38:00;;;;;;;16.02;10.95;;;7.40;99.90;;;;;;4974775;28;20423;-72
2021/12/28 00:40:26;;;;;;;15.05;9.80;;;7.40;99.90;;;;;;4974667;28;20392;-72
2021/12/28 00:42:52;;;;;;;16.48;9.98;;;7.50;99.90;;;;;;4974683;28;20456;-72
2021/12/28 00:45:18;;;;;;;15.60;9.73;;;7.40;99.90;;;;;;4974484;28;20809;-72
2021/12/28 00:47:44;;;;;;;15.10;9.57;;;7.40;99.90;;;;;;4974404;28;20388;-72
2021/12/28 00:50:11;;;;;;;17.80;9.90;;;7.40;99.90;;;;;;4974761;28;20479;-72
2021/12/28 00:52:37;;;;;;;15.98;9.43;;;7.40;99.90;;;;;;4974407;28;20442;-72
2021/12/28 00:55:05;;;;;;;14.07;9.05;;;7.40;99.90;;;;;;4974317;28;20393;-72
2021/12/28 00:57:30;;;;;;;10.95;7.72;;;7.40;99.90;;;;;;4973922;28;20400;-72
2021/12/28 00:59:56;;;;;;;13.25;7.60;;;7.40;99.90;;;;;;4974356;28;20901;-72
2021/12/28 01:02:22;;;;;;;15.00;8.48;;;7.50;99.90;;;;;;4975545;28;20388;-72
2021/12/28 01:04:47;;;;;;;12.60;8.63;;;7.40;99.90;;;;;;4973376;28;20466;-72
2021/12/28 01:07:13;;;;;;;10.47;7.07;;;7.40;99.90;;;;;;4974036;28;20395;-71
2021/12/28 01:09:41;;;;;;;14.20;7.70;;;7.50;99.90;;;;;;4974333;28;20380;-71
2021/12/28 01:12:07;;;;;;;10.38;7.00;;;7.50;99.90;;;;;;4974198;28;20897;-71
2021/12/28 01:14:33;;;;;;;16.33;7.70;;;7.50;99.90;;;;;;4973899;28;20392;-72
2021/12/28 01:16:59;;;;;;;13.95;7.20;;;7.50;99.90;;;;;;4974210;28;20846;-72
2021/12/28 01:19:28;;;;;;;12.50;6.90;;;7.60;99.90;;;;;;4973938;28;20834;-72
2021/12/28 01:21:54;;;;;;;16.67;6.47;;;7.60;99.90;;;;;;4973855;28;20404;-73
2021/12/28 01:24:20;;;;;;;15.48;7.03;;;7.60;99.90;;;;;;4973936;28;20395;-73
2021/12/28 01:26:46;;;;;;;13.85;7.40;;;7.60;99.90;;;;;;4973343;28;20446;-71
2021/12/28 01:29:11;;;;;;;9.75;6.00;;;7.60;99.90;;;;;;4973990;28;20418;-72
2021/12/28 01:31:37;;;;;;;15.57;6.85;;;7.70;99.90;;;;;;4974155;28;20459;-73
2021/12/28 01:34:08;;;;;;;13.23;5.93;;;7.60;99.90;;;;;;4974206;28;20403;-72
2021/12/28 01:36:34;;;;;;;10.97;6.50;;;7.70;99.90;;;;;;4972159;28;20447;-72
2021/12/28 01:39:01;;;;;;;14.20;6.32;;;7.80;99.90;;;;;;4973214;28;20494;-71
2021/12/28 01:41:27;;;;;;;10.63;6.22;;;7.80;99.90;;;;;;4973776;28;20438;-71
2021/12/28 01:43:57;;;;;;;11.38;6.03;;;7.80;99.90;;;;;;4973604;28;20380;-71
2021/12/28 01:46:23;;;;;;;12.68;5.60;;;7.80;99.90;;;;;;4973435;28;20900;-71
2021/12/28 01:48:49;;;;;;;24.73;5.82;;;7.90;99.90;;;;;;4973204;28;20396;-72
2021/12/28 01:51:20;;;;;;;14.83;6.07;;;7.90;99.90;;;;;;4973520;28;20407;-73
2021/12/28 01:53:48;;;;;;;15.73;5.47;;;7.90;99.90;;;;;;4973612;28;20392;-72
2021/12/28 01:56:37;;;;;;;13.02;4.82;;;8.00;99.90;;;;;;4973348;28;20889;-72
2021/12/28 01:59:03;;;;;;;17.27;5.18;;;8.10;99.90;;;;;;4972874;28;20462;-72
2021/12/28 02:01:29;;;;;;;11.07;5.45;;;8.10;99.90;;;;;;4973160;28;20884;-72
2021/12/28 02:03:55;;;;;;;12.57;5.10;;;8.00;99.90;;;;;;4973242;28;20384;-72
2021/12/28 02:06:22;;;;;;;17.75;5.65;;;8.10;99.90;;;;;;4973161;28;20395;-72
2021/12/28 02:08:48;;;;;;;15.48;5.68;;;8.20;99.90;;;;;;4973279;28;20392;-72
2021/12/28 02:11:14;;;;;;;11.73;5.40;;;8.20;99.90;;;;;;4973277;28;20825;-72
2021/12/28 02:13:40;;;;;;;16.15;4.88;;;8.30;99.90;;;;;;4972898;28;20403;-72
2021/12/28 02:16:06;;;;;;;17.65;4.97;;;8.30;99.90;;;;;;4973177;28;20743;-73
2021/12/28 02:18:33;;;;;;;15.88;4.88;;;8.30;99.90;;;;;;4971270;28;20408;-72
2021/12/28 02:21:00;;;;;;;13.00;4.75;;;8.40;99.90;;;;;;4972638;28;20455;-72
2021/12/28 02:23:25;;;;;;;11.93;5.25;;;8.30;99.90;;;;;;4973078;28;20389;-72
2021/12/28 02:25:52;;;;;;;14.38;4.70;;;8.30;99.90;;;;;;4973326;28;20389;-71
2021/12/28 02:28:18;;;;;;;14.02;5.22;;;8.40;99.90;;;;;;4971161;28;20423;-73
2021/12/28 02:30:47;;;;;;;20.13;4.25;;;8.40;99.90;;;;;;4972730;28;20411;-71
2021/12/28 02:33:13;;;;;;;16.90;4.18;;;8.30;99.90;;;;;;4972775;28;20403;-71
2021/12/28 02:35:39;;;;;;;15.05;4.32;;;8.40;99.90;;;;;;4972456;28;20400;-71
2021/12/28 02:38:07;;;;;;;25.52;4.45;;;8.40;99.90;;;;;;4972310;28;20408;-71
2021/12/28 02:40:34;;;;;;;19.42;5.30;;;8.40;99.90;;;;;;4972480;28;20392;-72
2021/12/28 02:43:01;;;;;;;20.03;5.03;;;8.40;99.90;;;;;;4971652;28;20475;-72
2021/12/28 02:45:36;;;;;;;20.75;5.30;;;8.40;99.90;;;;;;4972685;28;20395;-71
2021/12/28 02:48:05;;;;;;;19.00;5.07;;;8.40;99.90;;;;;;4972473;28;20813;-71
2021/12/28 02:50:44;;;;;;;25.70;4.90;;;8.40;99.90;;;;;;4972490;28;20396;-73
2021/12/28 02:53:11;;;;;;;20.45;5.10;;;8.50;99.90;;;;;;4972886;28;20388;-71
2021/12/28 02:55:39;;;;;;;19.88;5.00;;;8.40;99.90;;;;;;4972372;28;20388;-71
2021/12/28 02:58:08;;;;;;;21.52;5.20;;;8.50;99.90;;;;;;4970579;28;20580;-72
2021/12/28 03:00:53;;;;;;;17.52;4.70;;;8.50;99.90;;;;;;4972072;28;20478;-72
2021/12/28 03:03:25;;;;;;;18.70;4.90;;;8.50;99.90;;;;;;4972062;28;20790;-72
2021/12/28 03:05:53;;;;;;;29.17;5.32;;;8.60;99.90;;;;;;4972244;28;20422;-72
2021/12/28 03:08:21;;;;;;;25.20;5.40;;;8.70;99.90;;;;;;4972210;28;20394;-72
2021/12/28 03:10:48;;;;;;;22.33;5.75;;;8.70;99.90;;;;;;4971770;28;20894;-72
2021/12/28 03:13:17;;;;;;;27.58;5.30;;;8.70;99.60;;;;;;4972051;28;20470;-72
2021/12/28 03:15:43;;;;;;;29.30;6.30;;;8.80;97.30;;;;;;4971102;28;20834;-73
2021/12/28 03:18:09;;;;;;;21.65;5.53;;;8.90;95.50;;;;;;4972384;28;20439;-71
2021/12/28 03:20:35;;;;;;;32.40;5.78;;;8.90;96.00;;;;;;4972260;28;20411;-71
2021/12/28 03:23:00;;;;;;;24.25;6.20;;;9.00;92.10;;;;;;4974626;28;20393;-72
2021/12/28 03:25:26;;;;;;;20.00;5.80;;;9.00;92.20;;;;;;4974508;28;20396;-73
2021/12/28 03:27:52;;;;;;;26.20;5.90;;;9.00;93.60;;;;;;4973381;28;20499;-73
2021/12/28 03:30:19;;;;;;;30.35;6.20;;;9.00;91.80;;;;;;4972048;28;20447;-73
2021/12/28 03:32:45;;;;;;;26.23;6.55;;;9.10;92.10;;;;;;4972102;28;20488;-73
2021/12/28 03:35:13;;;;;;;21.20;4.90;;;9.10;94.40;;;;;;4972202;28;20384;-73
2021/12/28 03:37:40;;;;;;;26.85;5.38;;;9.10;94.80;;;;;;4971944;28;20392;-73
2021/12/28 03:40:09;;;;;;;34.22;6.20;;;9.10;97.40;;;;;;4972198;28;20388;-73
2021/12/28 03:42:35;;;;;;;25.65;6.43;;;9.10;96.10;;;;;;4971903;28;20742;-72
2021/12/28 03:45:01;;;;;;;22.67;5.90;;;9.10;97.20;;;;;;4972404;28;20384;-72
2021/12/28 03:47:26;;;;;;;33.35;5.32;;;9.10;97.70;;;;;;4971722;28;20420;-72
2021/12/28 03:49:52;;;;;;;25.75;5.70;;;9.20;98.40;;;;;;4971887;28;20402;-71
2021/12/28 03:52:18;;;;;;;24.40;5.65;;;9.20;98.70;;;;;;4971753;28;20396;-72
2021/12/28 03:54:43;;;;;;;28.15;5.93;;;9.20;99.80;;;;;;4973648;28;20384;-71
2021/12/28 03:57:09;;;;;;;24.77;5.80;;;9.20;99.30;;;;;;4975382;28;20399;-72
2021/12/28 03:59:35;;;;;;;33.20;6.10;;;9.10;99.90;;;;;;4975235;28;20434;-72
2021/12/28 04:02:01;;;;;;;23.07;5.20;;;9.00;99.90;;;;;;4973944;28;20527;-72
2021/12/28 04:04:26;;;;;;;25.92;6.07;;;9.00;99.90;;;;;;4975098;28;20420;-72
2021/12/28 04:06:52;;;;;;;30.80;6.40;;;9.00;99.90;;;;;;4974766;28;20393;-71
2021/12/28 04:09:23;;;;;;;41.28;7.18;;;9.00;99.90;;;;;;4974912;28;20380;-72
2021/12/28 04:11:49;;;;;;;25.20;5.90;;;9.00;99.90;;;;;;4974775;28;20380;-72
2021/12/28 04:14:15;;;;;;;28.17;6.00;;;9.10;99.90;;;;;;4975308;28;20392;-72
2021/12/28 04:16:42;;;;;;;31.85;5.90;;;9.10;99.90;;;;;;4974853;28;20850;-71
2021/12/28 04:19:07;;;;;;;21.73;5.82;;;9.10;99.90;;;;;;4975088;28;20839;-72
2021/12/28 04:21:34;;;;;;;28.70;6.13;;;9.10;99.90;;;;;;4975401;28;20483;-72
2021/12/28 04:24:01;;;;;;;24.98;6.57;;;9.20;99.90;;;;;;4973548;28;20473;-72
2021/12/28 04:26:28;;;;;;;25.85;6.45;;;9.20;99.90;;;;;;4974807;28;20906;-72
2021/12/28 04:28:54;;;;;;;30.27;6.30;;;9.10;99.90;;;;;;4974637;28;20403;-72
2021/12/28 04:31:20;;;;;;;29.40;5.88;;;9.10;99.90;;;;;;4973486;28;20392;-72
2021/12/28 04:33:46;;;;;;;30.85;6.20;;;9.30;99.90;;;;;;4974643;28;20392;-72
2021/12/28 04:36:14;;;;;;;24.90;5.57;;;9.20;99.90;;;;;;4974634;28;20474;-72
2021/12/28 04:38:43;;;;;;;33.20;5.70;;;9.20;99.90;;;;;;4974079;28;20412;-72
2021/12/28 04:41:10;;;;;;;32.92;6.40;;;9.30;99.90;;;;;;4974467;28;20746;-71
2021/12/28 04:43:36;;;;;;;33.93;5.60;;;9.20;99.90;;;;;;4974531;28;20389;-72
2021/12/28 04:46:02;;;;;;;30.35;6.43;;;9.20;99.90;;;;;;4974735;28;20388;-72
2021/12/28 04:48:28;;;;;;;35.53;6.75;;;9.20;99.90;;;;;;4974195;28;20394;-72
2021/12/28 04:50:54;;;;;;;31.20;6.40;;;9.20;99.90;;;;;;4974410;28;20474;-72
2021/12/28 04:53:20;;;;;;;37.97;6.25;;;9.10;99.90;;;;;;4974537;28;20384;-72
2021/12/28 04:55:48;;;;;;;30.63;6.30;;;9.10;99.90;;;;;;4974651;28;20468;-72
2021/12/28 04:58:14;;;;;;;24.52;6.35;;;9.20;99.90;;;;;;4974229;28;20484;-72
2021/12/28 05:00:42;;;;;;;37.22;5.70;;;9.20;99.90;;;;;;4973398;28;20384;-73
2021/12/28 05:03:08;;;;;;;28.98;5.97;;;9.20;99.90;;;;;;4973980;28;20400;-72
2021/12/28 05:05:35;;;;;;;30.30;5.60;;;9.30;99.90;;;;;;4973257;28;20388;-72
2021/12/28 05:08:04;;;;;;;32.72;6.10;;;9.40;99.90;;;;;;4973646;28;20400;-72
2021/12/28 05:10:29;;;;;;;33.45;6.68;;;9.30;99.90;;;;;;4974037;28;20397;-72
2021/12/28 05:12:55;;;;;;;34.97;6.15;;;9.30;99.90;;;;;;4973746;28;20415;-72
2021/12/28 05:15:21;;;;;;;38.77;6.50;;;9.30;99.90;;;;;;4973821;28;20392;-72
2021/12/28 05:17:46;;;;;;;19.67;5.20;;;9.30;99.90;;;;;;4973651;28;20444;-73
2021/12/28 05:20:13;;;;;;;28.83;6.50;;;9.20;99.90;;;;;;4973823;28;20450;-72
2021/12/28 05:22:39;;;;;;;32.40;6.30;;;9.10;99.90;;;;;;4973647;28;20396;-73
2021/12/28 05:25:06;;;;;;;32.40;5.80;;;9.20;99.90;;;;;;4973796;28;20879;-72
2021/12/28 05:27:31;;;;;;;25.77;5.70;;;9.20;99.90;;;;;;4973304;28;20723;-72
2021/12/28 05:29:57;;;;;;;28.40;5.38;;;9.30;99.90;;;;;;4973586;28;20446;-72
2021/12/28 05:32:22;;;;;;;25.93;5.13;;;9.20;99.90;;;;;;4973731;28;20446;-72
2021/12/28 05:34:48;;;;;;;30.47;6.10;;;9.30;99.90;;;;;;4973543;28;20816;-72
2021/12/28 05:37:14;;;;;;;29.43;5.57;;;9.30;99.90;;;;;;4973408;28;20395;-72
2021/12/28 05:39:39;;;;;;;21.27;5.40;;;9.20;99.90;;;;;;4973392;28;20416;-73
2021/12/28 05:42:06;;;;;;;23.70;5.90;;;9.30;99.90;;;;;;4973437;28;20399;-73
2021/12/28 05:44:31;;;;;;;30.33;6.03;;;9.30;99.90;;;;;;4972211;28;20854;-72
2021/12/28 05:46:57;;;;;;;25.37;6.40;;;9.30;99.90;;;;;;4973141;28;20391;-72
2021/12/28 05:49:23;;;;;;;29.80;6.10;;;9.30;99.90;;;;;;4973342;28;20391;-72
2021/12/28 05:51:49;;;;;;;29.73;6.03;;;9.30;99.90;;;;;;4973293;28;20384;-71
2021/12/28 05:54:17;;;;;;;31.02;6.88;;;9.40;99.90;;;;;;4973301;28;20913;-72
2021/12/28 05:56:43;;;;;;;22.00;5.80;;;9.40;99.90;;;;;;4972945;28;20384;-72
2021/12/28 05:59:08;;;;;;;29.52;6.90;;;9.30;99.90;;;;;;4972523;28;20419;-72
2021/12/28 06:01:34;;;;;;;24.27;6.73;;;9.40;99.90;;;;;;4972738;28;20524;-72
2021/12/28 06:04:00;;;;;;;24.10;6.30;;;9.40;99.90;;;;;;4973045;28;20486;-72
2021/12/28 06:06:26;;;;;;;32.20;7.03;;;9.30;99.90;;;;;;4972730;28;20385;-72
2021/12/28 06:08:52;;;;;;;31.98;7.30;;;9.40;99.90;;;;;;4972497;28;20416;-72
2021/12/28 06:11:19;;;;;;;26.35;6.90;;;9.30;99.90;;;;;;4972569;28;20392;-72
2021/12/28 06:13:45;;;;;;;29.87;7.13;;;9.30;99.90;;;;;;4972823;28;20396;-72
2021/12/28 06:16:10;;;;;;;25.58;7.30;;;9.40;99.90;;;;;;4972810;28;20919;-72
2021/12/28 06:18:36;;;;;;;35.45;7.80;;;9.40;99.90;;;;;;4972662;28;20894;-72
2021/12/28 06:21:02;;;;;;;31.93;7.80;;;9.40;99.90;;;;;;4974364;28;20490;-74
2021/12/28 06:23:28;;;;;;;29.08;8.23;;;9.40;99.90;;;;;;4974399;28;20391;-73
2021/12/28 06:25:54;;;;;;;21.90;6.88;;;9.40;99.90;;;;;;4973929;28;20751;-73
2021/12/28 06:28:20;;;;;;;21.42;7.13;;;9.50;99.90;;;;;;4974119;28;20392;-73
2021/12/28 06:30:45;;;;;;;23.73;6.50;;;9.50;99.90;;;;;;4972323;28;20866;-72
2021/12/28 06:33:11;;;;;;;24.77;7.40;;;9.50;99.90;;;;;;4972234;28;20930;-72
2021/12/28 06:35:37;;;;;;;23.20;7.23;;;9.50;99.90;;;;;;4972546;28;20384;-72
2021/12/28 06:38:02;;;;;;;22.63;7.50;;;9.50;99.90;;;;;;4971988;28;20909;-72
2021/12/28 06:40:28;;;;;;;25.17;6.97;;;9.30;99.90;;;;;;4972295;28;20900;-72
2021/12/28 06:42:54;;;;;;;19.98;6.82;;;9.40;99.90;;;;;;4970844;28;20396;-72
2021/12/28 06:45:20;;;;;;;23.55;8.30;;;9.30;99.90;;;;;;4972319;28;20384;-72
2021/12/28 06:47:46;;;;;;;27.50;7.60;;;9.20;99.90;;;;;;4972092;28;20456;-72
2021/12/28 06:50:12;;;;;;;21.52;7.18;;;9.30;99.90;;;;;;4987157;28;20790;-72
2021/12/28 06:52:38;;;;;;;19.65;8.18;;;9.30;99.90;;;;;;4972672;28;20399;-72
2021/12/28 06:55:05;;;;;;;22.48;7.40;;;9.40;99.90;;;;;;4970939;28;20399;-72
2021/12/28 06:57:31;;;;;;;24.08;8.13;;;9.30;99.90;;;;;;4982964;28;20392;-72
2021/12/28 06:59:56;;;;;;;22.30;7.10;;;9.30;99.90;;;;;;4988741;28;20445;-72
2021/12/28 07:02:22;;;;;;;25.20;7.47;;;9.30;99.90;;;;;;4981739;28;20770;-73
2021/12/28 07:04:48;;;;;;;21.53;6.97;;;9.30;99.90;;;;;;4972364;28;20811;-72
2021/12/28 07:07:14;;;;;;;18.88;6.82;;;9.30;99.90;;;;;;4971902;28;20408;-72
2021/12/28 07:09:40;;;;;;;20.27;6.90;;;9.40;99.90;;;;;;4971757;28;20415;-73
2021/12/28 07:12:06;;;;;;;26.45;7.10;;;9.40;99.90;;;;;;4971716;28;20392;-73
2021/12/28 07:14:32;;;;;;;21.63;7.13;;;9.40;99.90;;;;;;4971855;28;20873;-72
2021/12/28 07:16:58;;;;;;;15.55;6.30;;;9.30;99.90;;;;;;4971856;28;20411;-73
2021/12/28 07:19:25;;;;;;;19.77;6.78;;;9.40;99.90;;;;;;4973835;28;20893;-73
2021/12/28 07:21:51;;;;;;;19.52;6.72;;;9.40;99.90;;;;;;4974408;28;20747;-73
2021/12/28 07:24:17;;;;;;;21.20;6.35;;;9.40;99.90;;;;;;4975916;28;20751;-73
2021/12/28 07:26:43;;;;;;;20.00;6.70;;;9.50;99.90;;;;;;4989292;28;20388;-73
2021/12/28 07:29:11;;;;;;;18.77;6.50;;;9.40;99.90;;;;;;4975817;28;20394;-73
2021/12/28 07:31:37;;;;;;;16.75;6.10;;;9.40;99.90;;;;;;4979040;28;20387;-73
2021/12/28 07:34:03;;;;;;;13.85;5.80;;;9.40;99.90;;;;;;4980760;28;20392;-72
2021/12/28 07:36:29;;;;;;;19.85;5.75;;;9.40;99.90;;;;;;4979097;28;20388;-72
2021/12/28 07:38:56;;;;;;;20.83;5.90;;;9.50;99.90;;;;;;4978851;28;20411;-73
2021/12/28 07:41:21;;;;;;;14.77;5.63;;;9.50;99.90;;;;;;4978898;28;20531;-73
2021/12/28 07:43:47;;;;;;;11.73;5.27;;;9.40;99.90;;;;;;4980085;28;20380;-72
2021/12/28 07:46:14;;;;;;;19.25;5.57;;;9.50;99.90;;;;;;4980192;28;20392;-72
2021/12/28 07:48:40;;;;;;;13.82;5.00;;;9.50;99.90;;;;;;4981339;28;20399;-73
2021/12/28 07:51:07;;;;;;;15.40;5.50;;;9.40;99.90;;;;;;4980931;28;20411;-72
2021/12/28 07:53:33;;;;;;;12.70;5.13;;;9.30;99.90;;;;;;4976943;28;20392;-72
2021/12/28 07:55:59;;;;;;;14.75;5.40;;;9.10;99.90;;;;;;4976382;28;20801;-72
2021/12/28 07:58:25;;;;;;;15.70;5.30;;;9.00;99.90;;;;;;4976006;28;20483;-72
2021/12/28 08:00:51;;;;;;;10.55;4.75;;;9.00;99.90;;;;;;4970689;28;20760;-72
2021/12/28 08:03:18;;;;;;;13.07;5.50;;;9.00;99.90;;;;;;4956912;29;20394;-72
2021/12/28 08:05:45;;;;;;;20.58;5.20;;;8.90;99.90;;;;;;4955987;29;20394;-73
2021/12/28 08:08:11;;;;;;;17.73;4.70;;;8.90;99.90;;;;;;4955806;29;20390;-71
2021/12/28 08:10:38;;;;;;;13.50;4.93;;;9.00;99.90;;;;;;4956218;29;20417;-72
2021/12/28 08:13:03;;;;;;;20.00;5.13;;;9.10;99.90;;;;;;4956161;29;20847;-72
2021/12/28 08:15:29;;;;;;;12.38;4.60;;;9.20;99.90;;;;;;4955967;29;20484;-72
2021/12/28 08:17:55;;;;;;;17.77;4.82;;;9.30;99.90;;;;;;4955624;29;20397;-72
2021/12/28 08:20:20;;;;;;;13.65;4.93;;;9.30;99.90;;;;;;4955882;29;20433;-75
2021/12/28 08:22:47;;;;;;;11.07;4.50;;;9.30;99.90;;;;;;4955956;28;20397;-72
2021/12/28 08:25:17;;;;;;;17.03;5.33;;;9.40;99.90;;;;;;4955917;29;20807;-73
2021/12/28 08:27:42;;;;;;;15.75;5.18;;;9.40;99.90;;;;;;4955871;29;20440;-74
2021/12/28 08:30:10;;;;;;;12.60;5.30;;;9.60;99.90;;;;;;4955548;29;20739;-73
2021/12/28 08:32:36;;;;;;;15.68;5.75;;;9.70;99.90;;;;;;4955489;29;20382;-73
2021/12/28 08:35:04;;;;;;;13.70;4.80;;;9.70;99.90;;;;;;4960150;29;20396;-72
2021/12/28 08:37:29;;;;;;;21.38;4.80;;;9.70;99.90;;;;;;4959025;29;20405;-73
2021/12/28 08:39:55;;;;;;;14.83;5.60;;;9.70;99.90;;;;;;4955434;28;20414;-72
2021/12/28 08:42:21;;;;;;;13.30;5.13;;;9.60;99.90;;;;;;4957134;29;20381;-73
2021/12/28 08:44:48;;;;;;;8.80;4.60;;;9.60;99.90;;;;;;4958768;29;20386;-73
2021/12/28 08:47:13;;;;;;;13.13;5.30;;;9.60;99.90;;;;;;4958397;28;20394;-73
2021/12/28 08:49:39;;;;;;;12.33;5.47;;;9.60;99.90;;;;;;4957941;29;20449;-73
2021/12/28 08:52:05;;;;;;;15.10;5.68;;;9.60;99.90;;;;;;4959132;29;20401;-74
2021/12/28 08:54:31;;;;;;;13.52;5.07;;;9.60;99.90;;;;;;4959138;29;20497;-73
2021/12/28 08:56:57;;;;;;;13.80;4.63;;;9.50;99.90;;;;;;4957653;29;20401;-73
2021/12/28 08:59:22;;;;;;;13.03;5.00;;;9.60;99.90;;;;;;4956091;29;20409;-72
2021/12/28 09:01:49;;;;;;;18.67;5.27;;;9.60;99.90;;;;;;4956378;29;20397;-73
2021/12/28 09:04:16;;;;;;;8.90;4.30;;;9.70;99.90;;;;;;4958371;29;20393;-72
2021/12/28 09:06:41;;;;;;;14.57;5.22;;;9.70;99.70;;;;;;4956204;29;20386;-73
2021/12/28 09:09:08;;;;;;;17.00;5.15;;;9.70;99.90;;;;;;4955096;29;20390;-72
2021/12/28 09:11:33;;;;;;;10.95;5.50;;;9.70;99.90;;;;;;4954751;29;20465;-72
2021/12/28 09:13:59;;;;;;;13.30;4.40;;;9.80;98.40;;;;;;4954992;29;20401;-72
2021/12/28 09:16:24;;;;;;;11.73;5.00;;;9.90;95.40;;;;;;4954942;29;20393;-72
2021/12/28 09:18:50;;;;;;;11.87;5.50;;;9.90;96.60;;;;;;4956538;29;20421;-75
2021/12/28 09:21:16;;;;;;;14.43;5.47;;;10.00;97.60;;;;;;4957374;29;20409;-73
2021/12/28 09:23:41;;;;;;;16.50;4.90;;;10.00;97.40;;;;;;4955947;29;20386;-73
2021/12/28 09:26:07;;;;;;;10.93;5.50;;;10.00;95.40;;;;;;4956545;29;20425;-73
2021/12/28 09:28:33;;;;;;;14.65;4.97;;;10.00;97.00;;;;;;4954475;29;20398;-73
2021/12/28 09:30:59;;;;;;;11.48;4.72;;;10.00;96.70;;;;;;4969227;28;20421;-72
2021/12/28 09:33:25;;;;;;;10.32;5.43;;;10.00;96.80;;;;;;4954306;29;20437;-72
2021/12/28 09:35:52;;;;;;;10.27;5.40;;;10.00;98.70;;;;;;4953950;29;20807;-74
2021/12/28 09:38:19;;;;;;;12.48;4.75;;;10.20;97.50;;;;;;4953919;29;20417;-73
2021/12/28 09:40:46;;;;;;;12.25;5.38;;;10.20;95.50;;;;;;4953559;29;20393;-73
2021/12/28 09:43:13;;;;;;;13.45;5.68;;;10.30;94.70;;;;;;4954119;29;20733;-73
2021/12/28 09:45:38;;;;;;;9.40;4.90;;;10.20;96.30;;;;;;4954153;29;20398;-73
2021/12/28 09:48:05;;;;;;;13.18;5.35;;;10.40;94.00;;;;;;4953612;29;20386;-73
2021/12/28 09:50:31;;;;;;;13.05;4.70;;;10.40;91.70;;;;;;4953933;29;20406;-73
2021/12/28 09:52:57;;;;;;;11.70;5.20;;;10.40;92.80;;;;;;4953903;28;20508;-73
2021/12/28 09:55:24;;;;;;;14.07;5.20;;;10.40;93.00;;;;;;4954250;29;20422;-73
2021/12/28 09:57:51;;;;;;;14.95;5.40;;;10.20;96.20;;;;;;4954266;29;20400;-72
2021/12/28 10:00:17;;;;;;;8.48;4.35;;;10.10;98.40;;;;;;4954020;29;20751;-73
2021/12/28 10:02:43;;;;;;;14.98;5.32;;;10.10;99.90;;;;;;4953838;29;20394;-73
2021/12/28 10:05:12;;;;;;;12.05;5.30;;;10.30;98.40;;;;;;4953906;29;20721;-73
2021/12/28 10:07:48;;;;;;;9.55;4.72;;;10.20;99.90;;;;;;4953295;29;20392;-73
2021/12/28 10:10:15;;;;;;;8.98;4.90;;;10.20;99.90;;;;;;4953382;28;20390;-72
2021/12/28 10:12:52;;;;;;;8.63;4.50;;;10.20;99.50;;;;;;4953024;29;20386;-74
2021/12/28 10:15:30;;;;;;;10.48;4.97;;;10.20;97.60;;;;;;4953420;29;20400;-73
2021/12/28 10:17:58;;;;;;;9.47;5.03;;;10.10;99.40;;;;;;4953404;29;20420;-73
2021/12/28 10:20:32;;;;;;;11.35;5.15;;;10.20;99.90;;;;;;4953314;29;20418;-73
2021/12/28 10:23:03;;;;;;;8.13;5.00;;;10.10;99.90;;;;;;4953566;29;20401;-72
2021/12/28 10:25:32;;;;;;;9.50;4.97;;;10.20;99.90;;;;;;4953319;29;20440;-73
2021/12/28 10:28:01;;;;;;;10.80;5.32;;;10.20;99.90;;;;;;4953244;29;20386;-73
2021/12/28 10:31:07;;;;;;;12.50;4.90;;;10.40;99.50;;;;;;4952966;29;20442;-73
2021/12/28 10:33:36;;;;;;;9.73;5.03;;;10.40;99.90;;;;;;4952061;28;20477;-73
2021/12/28 10:36:08;;;;;;;10.80;4.88;;;10.30;99.90;;;;;;4953132;29;20393;-73
2021/12/28 10:38:37;;;;;;;7.15;5.00;;;10.30;99.90;;;;;;4967478;28;20441;-75
2021/12/28 10:41:12;;;;;;;10.73;4.95;;;10.20;99.90;;;;;;4952647;29;20486;-73
2021/12/28 10:43:43;;;;;;;9.27;5.13;;;10.30;99.90;;;;;;4953381;29;20397;-73
2021/12/28 10:46:16;;;;;;;10.00;4.53;;;10.30;99.90;;;;;;4952895;28;20481;-72
2021/12/28 10:48:47;;;;;;;11.35;5.20;;;10.40;99.90;;;;;;4952608;29;20396;-71
2021/12/28 10:51:24;;;;;;;8.25;4.85;;;10.30;99.90;;;;;;4951603;29;20398;-75
2021/12/28 10:54:07;;;;;;;5.68;4.10;;;10.30;99.90;;;;;;4967533;28;20433;-73
2021/12/28 10:56:50;;;;;;;10.80;4.70;;;10.30;99.90;;;;;;4952618;29;20399;-72
2021/12/28 10:59:22;;;;;;;10.05;4.72;;;10.40;99.90;;;;;;4952714;29;20923;-72
2021/12/28 11:01:48;;;;;;;6.00;4.28;;;10.30;99.90;;;;;;4952863;29;20431;-73
2021/12/28 11:04:15;;;;;;;8.50;4.63;;;10.40;99.90;;;;;;4952305;28;20748;-72
2021/12/28 11:06:46;;;;;;;6.53;4.65;;;10.50;99.90;;;;;;4952008;29;20394;-73
2021/12/28 11:09:17;;;;;;;11.57;5.18;;;10.70;96.20;;;;;;4953015;29;20389;-72
2021/12/28 11:11:43;;;;;;;10.10;4.50;;;10.50;97.20;;;;;;4952674;29;20389;-72
2021/12/28 11:14:13;;;;;;;7.07;4.80;;;10.30;99.90;;;;;;4952840;29;20405;-72
2021/12/28 11:16:39;;;;;;;7.78;5.15;;;10.40;99.90;;;;;;4952934;29;20931;-72
2021/12/28 11:19:07;;;;;;;9.85;5.70;;;10.30;99.90;;;;;;4952398;29;20562;-73
2021/12/28 11:21:37;;;;;;;9.15;4.97;;;10.30;99.90;;;;;;4952165;29;20450;-73
2021/12/28 11:24:06;;;;;;;5.88;4.30;;;10.30;99.90;;;;;;4952362;29;20382;-72
2021/12/28 11:26:34;;;;;;;9.63;5.30;;;10.30;99.90;;;;;;4951945;29;20394;-73
2021/12/28 11:29:02;;;;;;;11.00;4.78;;;10.40;99.90;;;;;;4951023;28;20402;-72
2021/12/28 11:31:32;;;;;;;5.93;4.60;;;10.40;99.90;;;;;;4952467;29;20449;-74
2021/12/28 11:34:08;;;;;;;12.07;4.95;;;10.50;99.90;;;;;;4952586;29;20736;-71
2021/12/28 11:36:44;;;;;;;7.45;4.65;;;10.50;99.90;;;;;;4952293;29;20390;-72
2021/12/28 11:39:13;;;;;;;6.47;4.30;;;10.80;94.60;;;;;;4952303;29;20556;-72
2021/12/28 11:41:40;;;;;;;6.97;5.20;;;10.70;91.60;;;;;;4952334;29;20401;-73
2021/12/28 11:44:05;;;;;;;8.48;4.63;;;10.50;96.50;;;;;;4952453;29;20926;-72
2021/12/28 11:46:31;;;;;;;10.57;4.45;;;10.60;97.70;;;;;;4953256;29;20410;-73
2021/12/28 11:48:57;;;;;;;7.25;4.28;;;10.70;93.30;;;;;;4954044;29;20389;-71
2021/12/28 11:51:24;;;;;;;4.88;4.00;;;10.70;95.40;;;;;;4952553;29;20393;-73
2021/12/28 11:53:53;;;;;;;7.80;4.68;;;10.60;99.30;;;;;;4967550;28;20401;-74
2021/12/28 11:56:25;;;;;;;6.83;3.97;;;10.60;98.50;;;;;;4960893;29;20401;-74
2021/12/28 11:58:54;;;;;;;4.78;3.90;;;10.70;95.80;;;;;;4965652;29;20409;-72
2021/12/28 12:01:43;;;;;;;4.80;3.50;;;10.70;97.90;;;;;;4961266;29;20405;-73
2021/12/28 12:04:27;;;;;;;4.45;3.47;;;10.60;98.80;;;;;;4952762;29;20717;-73
2021/12/28 12:07:09;;;;;;;8.20;4.00;;;10.70;98.20;;;;;;4952920;29;20398;-74
2021/12/28 12:09:55;;;;;;;7.82;4.20;;;10.70;99.90;;;;;;4953047;28;20805;-74
2021/12/28 12:12:43;;;;;;;9.43;4.20;;;10.70;99.90;;;;;;4953092;28;20871;-72
2021/12/28 12:15:10;;;;;;;9.15;5.15;;;10.60;99.90;;;;;;4953259;28;20464;-74
2021/12/28 12:17:39;;;;;;;6.30;4.10;;;10.40;99.90;;;;;;4955897;29;20401;-72
2021/12/28 12:20:08;;;;;;;8.77;4.75;;;10.40;99.90;;;;;;4956268;29;20416;-73
2021/12/28 12:22:39;;;;;;;8.03;5.30;;;10.40;99.90;;;;;;4956282;28;20405;-73
2021/12/28 12:25:08;;;;;;;7.65;4.60;;;10.30;99.90;;;;;;4959508;29;20463;-74
2021/12/28 12:27:59;;;;;;;9.57;4.65;;;10.50;99.90;;;;;;4965097;29;20390;-73
2021/12/28 12:30:25;;;;;;;4.90;3.00;;;10.50;99.90;;;;;;4957841;29;20402;-72
2021/12/28 12:33:05;;;;;;;6.80;2.60;;;10.70;95.80;;;;;;4955434;28;20390;-72
2021/12/28 12:35:40;;;;;;;7.80;2.75;;;10.80;95.70;;;;;;4955348;29;20748;-73
2021/12/28 12:38:12;;;;;;;5.50;2.40;;;10.80;90.00;;;;;;4954840;29;20444;-72
2021/12/28 12:41:00;;;;;;;8.50;2.50;;;10.90;92.50;;;;;;4955394;29;20452;-73
2021/12/28 12:43:38;;;;;;;10.07;3.50;;;11.00;89.40;;;;;;4955312;29;20453;-73
2021/12/28 12:46:05;;;;;;;15.18;3.08;;;11.00;86.30;;;;;;4954738;29;20385;-73
2021/12/28 12:48:32;;;;;;;16.93;4.00;;;11.10;78.00;;;;;;4954735;29;20416;-73
2021/12/28 12:51:19;;;;;;;23.70;4.30;;;11.20;67.90;;;;;;4954887;29;20398;-73